sensor_id;sensor_type;location;lat;lon;timestamp;P1;durP1;ratioP1;P2;durP2;ratioP2
77111;SDS011;66064;50.226;14.344;2023-07-09T00:01:53;7.50;;;7.00;;
77111;SDS011;66064;50.226;14.344;2023-07-09T00:04:19;8.48;;;7.72;;
77111;SDS011;66064;50.226;14.344;2023-07-09T00:06:45;7.13;;;6.43;;
77111;SDS011;66064;50.226;14.344;2023-07-09T00:09:18;7.72;;;5.57;;
77111;SDS011;66064;50.226;14.344;2023-07-09T00:11:46;7.88;;;7.28;;
77111;SDS011;66064;50.226;14.344;2023-07-09T00:14:15;5.53;;;5.03;;
77111;SDS011;66064;50.226;14.344;2023-07-09T00:16:43;8.43;;;7.65;;
77111;SDS011;66064;50.226;14.344;2023-07-09T00:19:12;8.55;;;7.90;;
77111;SDS011;66064;50.226;14.344;2023-07-09T00:21:42;6.85;;;6.22;;
77111;SDS011;66064;50.226;14.344;2023-07-09T00:24:13;6.40;;;4.43;;
77111;SDS011;66064;50.226;14.344;2023-07-09T00:26:40;7.15;;;6.55;;
77111;SDS011;66064;50.226;14.344;2023-07-09T00:29:10;8.48;;;7.68;;
77111;SDS011;66064;50.226;14.344;2023-07-09T00:31:37;6.55;;;6.00;;
77111;SDS011;66064;50.226;14.344;2023-07-09T00:34:12;7.95;;;7.25;;
77111;SDS011;66064;50.226;14.344;2023-07-09T00:36:40;8.27;;;7.47;;
77111;SDS011;66064;50.226;14.344;2023-07-09T00:39:17;6.82;;;5.80;;
77111;SDS011;66064;50.226;14.344;2023-07-09T00:41:44;9.20;;;8.38;;
77111;SDS011;66064;50.226;14.344;2023-07-09T00:49:16;7.65;;;6.32;;
77111;SDS011;66064;50.226;14.344;2023-07-09T00:51:55;7.10;;;6.55;;
77111;SDS011;66064;50.226;14.344;2023-07-09T00:54:28;7.65;;;6.95;;
77111;SDS011;66064;50.226;14.344;2023-07-09T00:57:07;6.60;;;6.07;;
77111;SDS011;66064;50.226;14.344;2023-07-09T01:02:05;7.88;;;7.38;;
77111;SDS011;66064;50.226;14.344;2023-07-09T01:04:33;8.10;;;7.43;;
77111;SDS011;66064;50.226;14.344;2023-07-09T01:06:59;7.18;;;6.30;;
77111;SDS011;66064;50.226;14.344;2023-07-09T01:09:26;9.88;;;9.18;;
77111;SDS011;66064;50.226;14.344;2023-07-09T01:11:52;7.85;;;7.30;;
77111;SDS011;66064;50.226;14.344;2023-07-09T01:14:21;8.80;;;7.80;;
77111;SDS011;66064;50.226;14.344;2023-07-09T01:17:01;8.27;;;6.05;;
77111;SDS011;66064;50.226;14.344;2023-07-09T01:19:30;6.05;;;5.40;;
77111;SDS011;66064;50.226;14.344;2023-07-09T01:22:12;7.00;;;6.38;;
77111;SDS011;66064;50.226;14.344;2023-07-09T01:27:31;7.18;;;5.75;;
77111;SDS011;66064;50.226;14.344;2023-07-09T01:30:00;7.05;;;6.55;;
77111;SDS011;66064;50.226;14.344;2023-07-09T01:32:32;9.50;;;8.52;;
77111;SDS011;66064;50.226;14.344;2023-07-09T01:34:59;8.07;;;7.40;;
77111;SDS011;66064;50.226;14.344;2023-07-09T01:37:31;6.80;;;6.30;;
77111;SDS011;66064;50.226;14.344;2023-07-09T01:40:00;7.07;;;6.43;;
77111;SDS011;66064;50.226;14.344;2023-07-09T01:42:26;9.30;;;8.60;;
77111;SDS011;66064;50.226;14.344;2023-07-09T01:44:54;6.88;;;6.05;;
77111;SDS011;66064;50.226;14.344;2023-07-09T01:47:21;7.20;;;6.60;;
77111;SDS011;66064;50.226;14.344;2023-07-09T01:49:49;9.20;;;8.50;;
77111;SDS011;66064;50.226;14.344;2023-07-09T01:52:16;8.00;;;5.45;;
77111;SDS011;66064;50.226;14.344;2023-07-09T01:54:44;6.88;;;6.25;;
77111;SDS011;66064;50.226;14.344;2023-07-09T01:57:25;6.85;;;6.35;;
77111;SDS011;66064;50.226;14.344;2023-07-09T01:59:58;7.90;;;7.30;;
77111;SDS011;66064;50.226;14.344;2023-07-09T02:02:26;7.85;;;7.28;;
77111;SDS011;66064;50.226;14.344;2023-07-09T02:04:53;7.75;;;7.00;;
77111;SDS011;66064;50.226;14.344;2023-07-09T02:07:21;6.57;;;5.97;;
77111;SDS011;66064;50.226;14.344;2023-07-09T02:09:49;7.32;;;6.82;;
77111;SDS011;66064;50.226;14.344;2023-07-09T02:12:15;8.38;;;7.80;;
77111;SDS011;66064;50.226;14.344;2023-07-09T02:14:42;7.80;;;7.05;;
77111;SDS011;66064;50.226;14.344;2023-07-09T02:17:10;7.20;;;6.50;;
77111;SDS011;66064;50.226;14.344;2023-07-09T02:19:37;7.70;;;6.90;;
77111;SDS011;66064;50.226;14.344;2023-07-09T02:22:03;5.72;;;5.22;;
77111;SDS011;66064;50.226;14.344;2023-07-09T02:24:29;9.10;;;8.35;;
77111;SDS011;66064;50.226;14.344;2023-07-09T02:26:56;8.27;;;7.47;;
77111;SDS011;66064;50.226;14.344;2023-07-09T02:29:24;8.48;;;7.78;;
77111;SDS011;66064;50.226;14.344;2023-07-09T02:31:51;7.07;;;5.90;;
77111;SDS011;66064;50.226;14.344;2023-07-09T02:34:18;7.80;;;7.15;;
77111;SDS011;66064;50.226;14.344;2023-07-09T02:36:45;6.97;;;6.28;;
77111;SDS011;66064;50.226;14.344;2023-07-09T02:39:13;8.13;;;7.53;;
77111;SDS011;66064;50.226;14.344;2023-07-09T02:41:40;9.80;;;9.13;;
77111;SDS011;66064;50.226;14.344;2023-07-09T02:44:06;7.45;;;5.28;;
77111;SDS011;66064;50.226;14.344;2023-07-09T02:46:33;8.52;;;7.65;;
77111;SDS011;66064;50.226;14.344;2023-07-09T02:48:59;8.63;;;7.95;;
77111;SDS011;66064;50.226;14.344;2023-07-09T02:51:26;8.23;;;7.45;;
77111;SDS011;66064;50.226;14.344;2023-07-09T02:53:56;10.82;;;9.75;;
77111;SDS011;66064;50.226;14.344;2023-07-09T02:56:23;6.57;;;6.03;;
77111;SDS011;66064;50.226;14.344;2023-07-09T02:58:50;8.55;;;7.80;;
77111;SDS011;66064;50.226;14.344;2023-07-09T03:01:16;7.55;;;6.93;;
77111;SDS011;66064;50.226;14.344;2023-07-09T03:03:43;8.43;;;7.85;;
77111;SDS011;66064;50.226;14.344;2023-07-09T03:06:09;6.13;;;4.95;;
77111;SDS011;66064;50.226;14.344;2023-07-09T03:08:35;5.50;;;5.03;;
77111;SDS011;66064;50.226;14.344;2023-07-09T03:11:11;8.05;;;7.38;;
77111;SDS011;66064;50.226;14.344;2023-07-09T03:13:38;6.32;;;5.82;;
77111;SDS011;66064;50.226;14.344;2023-07-09T03:16:04;9.52;;;8.82;;
77111;SDS011;66064;50.226;14.344;2023-07-09T03:18:30;9.88;;;6.53;;
77111;SDS011;66064;50.226;14.344;2023-07-09T03:20:56;10.88;;;8.60;;
77111;SDS011;66064;50.226;14.344;2023-07-09T03:23:23;8.63;;;7.95;;
77111;SDS011;66064;50.226;14.344;2023-07-09T03:25:50;7.60;;;6.97;;
77111;SDS011;66064;50.226;14.344;2023-07-09T03:28:15;9.95;;;9.30;;
77111;SDS011;66064;50.226;14.344;2023-07-09T03:30:42;10.85;;;10.13;;
77111;SDS011;66064;50.226;14.344;2023-07-09T03:33:10;6.32;;;5.75;;
77111;SDS011;66064;50.226;14.344;2023-07-09T03:35:37;10.70;;;9.90;;
77111;SDS011;66064;50.226;14.344;2023-07-09T03:40:32;8.57;;;7.82;;
77111;SDS011;66064;50.226;14.344;2023-07-09T03:42:58;6.13;;;5.53;;
77111;SDS011;66064;50.226;14.344;2023-07-09T03:45:25;7.82;;;7.13;;
77111;SDS011;66064;50.226;14.344;2023-07-09T03:47:51;5.40;;;4.90;;
77111;SDS011;66064;50.226;14.344;2023-07-09T03:50:18;6.85;;;6.25;;
77111;SDS011;66064;50.226;14.344;2023-07-09T03:52:44;6.82;;;6.22;;
77111;SDS011;66064;50.226;14.344;2023-07-09T03:55:10;7.82;;;7.22;;
77111;SDS011;66064;50.226;14.344;2023-07-09T03:57:36;9.25;;;8.55;;
77111;SDS011;66064;50.226;14.344;2023-07-09T04:00:05;6.32;;;5.72;;
77111;SDS011;66064;50.226;14.344;2023-07-09T04:02:36;8.27;;;7.20;;
77111;SDS011;66064;50.226;14.344;2023-07-09T04:05:04;10.55;;;5.85;;
77111;SDS011;66064;50.226;14.344;2023-07-09T04:07:30;6.72;;;6.07;;
77111;SDS011;66064;50.226;14.344;2023-07-09T04:09:56;8.00;;;5.82;;
77111;SDS011;66064;50.226;14.344;2023-07-09T04:12:22;9.45;;;8.55;;
77111;SDS011;66064;50.226;14.344;2023-07-09T04:14:48;8.38;;;7.78;;
77111;SDS011;66064;50.226;14.344;2023-07-09T04:17:14;8.32;;;7.63;;
77111;SDS011;66064;50.226;14.344;2023-07-09T04:19:40;8.85;;;7.95;;
77111;SDS011;66064;50.226;14.344;2023-07-09T04:22:06;5.82;;;5.32;;
77111;SDS011;66064;50.226;14.344;2023-07-09T04:24:32;7.68;;;7.18;;
77111;SDS011;66064;50.226;14.344;2023-07-09T04:26:58;9.27;;;8.57;;
77111;SDS011;66064;50.226;14.344;2023-07-09T04:29:28;8.55;;;7.82;;
77111;SDS011;66064;50.226;14.344;2023-07-09T04:31:55;6.47;;;5.57;;
77111;SDS011;66064;50.226;14.344;2023-07-09T04:34:21;7.20;;;6.50;;
77111;SDS011;66064;50.226;14.344;2023-07-09T04:36:48;7.07;;;6.38;;
77111;SDS011;66064;50.226;14.344;2023-07-09T04:39:14;7.88;;;7.18;;
77111;SDS011;66064;50.226;14.344;2023-07-09T04:41:40;8.23;;;6.30;;
77111;SDS011;66064;50.226;14.344;2023-07-09T04:44:06;8.07;;;5.75;;
77111;SDS011;66064;50.226;14.344;2023-07-09T04:46:32;7.53;;;6.78;;
77111;SDS011;66064;50.226;14.344;2023-07-09T04:48:58;5.53;;;5.03;;
77111;SDS011;66064;50.226;14.344;2023-07-09T04:51:25;7.05;;;5.95;;
77111;SDS011;66064;50.226;14.344;2023-07-09T04:53:52;6.38;;;5.60;;
77111;SDS011;66064;50.226;14.344;2023-07-09T04:56:18;6.00;;;5.40;;
77111;SDS011;66064;50.226;14.344;2023-07-09T04:58:44;5.22;;;4.72;;
77111;SDS011;66064;50.226;14.344;2023-07-09T05:01:10;5.55;;;4.85;;
77111;SDS011;66064;50.226;14.344;2023-07-09T05:03:36;4.82;;;4.07;;
77111;SDS011;66064;50.226;14.344;2023-07-09T05:06:04;8.65;;;5.22;;
77111;SDS011;66064;50.226;14.344;2023-07-09T05:08:30;5.93;;;5.28;;
77111;SDS011;66064;50.226;14.344;2023-07-09T05:10:56;5.10;;;4.60;;
77111;SDS011;66064;50.226;14.344;2023-07-09T05:13:24;5.65;;;5.07;;
77111;SDS011;66064;50.226;14.344;2023-07-09T05:15:50;5.45;;;4.78;;
77111;SDS011;66064;50.226;14.344;2023-07-09T05:18:17;6.25;;;4.50;;
77111;SDS011;66064;50.226;14.344;2023-07-09T05:20:43;5.75;;;3.60;;
77111;SDS011;66064;50.226;14.344;2023-07-09T05:23:10;5.03;;;4.07;;
77111;SDS011;66064;50.226;14.344;2023-07-09T05:25:36;5.53;;;3.40;;
77111;SDS011;66064;50.226;14.344;2023-07-09T05:28:03;5.03;;;3.58;;
77111;SDS011;66064;50.226;14.344;2023-07-09T05:30:29;5.53;;;3.13;;
77111;SDS011;66064;50.226;14.344;2023-07-09T05:32:56;4.25;;;3.55;;
77111;SDS011;66064;50.226;14.344;2023-07-09T05:35:23;4.95;;;3.53;;
77111;SDS011;66064;50.226;14.344;2023-07-09T05:37:54;6.22;;;3.35;;
77111;SDS011;66064;50.226;14.344;2023-07-09T05:40:20;4.85;;;3.40;;
77111;SDS011;66064;50.226;14.344;2023-07-09T05:42:47;5.07;;;3.78;;
77111;SDS011;66064;50.226;14.344;2023-07-09T05:45:14;5.10;;;3.33;;
77111;SDS011;66064;50.226;14.344;2023-07-09T05:47:41;5.40;;;3.58;;
77111;SDS011;66064;50.226;14.344;2023-07-09T05:50:07;4.72;;;3.25;;
77111;SDS011;66064;50.226;14.344;2023-07-09T05:52:34;4.72;;;3.47;;
77111;SDS011;66064;50.226;14.344;2023-07-09T05:55:00;4.00;;;2.95;;
77111;SDS011;66064;50.226;14.344;2023-07-09T05:57:26;4.82;;;3.70;;
77111;SDS011;66064;50.226;14.344;2023-07-09T05:59:52;4.43;;;3.35;;
77111;SDS011;66064;50.226;14.344;2023-07-09T06:02:19;6.22;;;3.90;;
77111;SDS011;66064;50.226;14.344;2023-07-09T06:07:15;3.63;;;2.88;;
77111;SDS011;66064;50.226;14.344;2023-07-09T06:09:41;4.35;;;3.13;;
77111;SDS011;66064;50.226;14.344;2023-07-09T06:12:07;5.30;;;3.70;;
77111;SDS011;66064;50.226;14.344;2023-07-09T06:14:34;4.32;;;3.05;;
77111;SDS011;66064;50.226;14.344;2023-07-09T06:17:01;5.00;;;3.72;;
77111;SDS011;66064;50.226;14.344;2023-07-09T06:19:26;7.00;;;3.42;;
77111;SDS011;66064;50.226;14.344;2023-07-09T06:21:53;4.50;;;3.00;;
77111;SDS011;66064;50.226;14.344;2023-07-09T06:24:19;4.28;;;3.15;;
77111;SDS011;66064;50.226;14.344;2023-07-09T06:26:48;4.32;;;2.85;;
77111;SDS011;66064;50.226;14.344;2023-07-09T06:29:13;7.00;;;3.10;;
77111;SDS011;66064;50.226;14.344;2023-07-09T06:31:40;6.38;;;3.20;;
77111;SDS011;66064;50.226;14.344;2023-07-09T06:34:08;4.05;;;2.88;;
77111;SDS011;66064;50.226;14.344;2023-07-09T06:36:35;3.63;;;2.80;;
77111;SDS011;66064;50.226;14.344;2023-07-09T06:39:01;4.88;;;3.10;;
77111;SDS011;66064;50.226;14.344;2023-07-09T06:41:28;4.85;;;3.13;;
77111;SDS011;66064;50.226;14.344;2023-07-09T06:43:54;4.70;;;3.22;;
77111;SDS011;66064;50.226;14.344;2023-07-09T06:46:20;4.30;;;2.80;;
77111;SDS011;66064;50.226;14.344;2023-07-09T06:48:46;4.30;;;2.80;;
77111;SDS011;66064;50.226;14.344;2023-07-09T06:51:12;4.38;;;3.05;;
77111;SDS011;66064;50.226;14.344;2023-07-09T06:53:38;4.82;;;2.70;;
77111;SDS011;66064;50.226;14.344;2023-07-09T06:56:05;3.90;;;2.90;;
77111;SDS011;66064;50.226;14.344;2023-07-09T06:58:32;3.70;;;2.67;;
77111;SDS011;66064;50.226;14.344;2023-07-09T07:03:29;4.03;;;2.58;;
77111;SDS011;66064;50.226;14.344;2023-07-09T07:05:55;4.03;;;2.60;;
77111;SDS011;66064;50.226;14.344;2023-07-09T07:08:23;4.03;;;2.80;;
77111;SDS011;66064;50.226;14.344;2023-07-09T07:10:53;3.75;;;2.63;;
77111;SDS011;66064;50.226;14.344;2023-07-09T07:13:34;4.22;;;2.80;;
77111;SDS011;66064;50.226;14.344;2023-07-09T07:16:02;4.28;;;2.88;;
77111;SDS011;66064;50.226;14.344;2023-07-09T07:18:30;3.67;;;2.80;;
77111;SDS011;66064;50.226;14.344;2023-07-09T07:20:56;3.83;;;2.55;;
77111;SDS011;66064;50.226;14.344;2023-07-09T07:23:21;3.85;;;2.63;;
77111;SDS011;66064;50.226;14.344;2023-07-09T07:25:49;3.83;;;2.75;;
77111;SDS011;66064;50.226;14.344;2023-07-09T07:28:15;4.25;;;2.60;;
77111;SDS011;66064;50.226;14.344;2023-07-09T07:30:42;5.30;;;2.72;;
77111;SDS011;66064;50.226;14.344;2023-07-09T07:33:08;4.43;;;2.60;;
77111;SDS011;66064;50.226;14.344;2023-07-09T07:35:34;3.83;;;2.45;;
77111;SDS011;66064;50.226;14.344;2023-07-09T07:38:00;4.75;;;2.70;;
77111;SDS011;66064;50.226;14.344;2023-07-09T07:40:26;4.43;;;2.50;;
77111;SDS011;66064;50.226;14.344;2023-07-09T07:42:52;4.28;;;2.60;;
77111;SDS011;66064;50.226;14.344;2023-07-09T07:45:18;4.07;;;2.70;;
77111;SDS011;66064;50.226;14.344;2023-07-09T07:47:44;3.70;;;2.70;;
77111;SDS011;66064;50.226;14.344;2023-07-09T07:50:10;4.15;;;2.47;;
77111;SDS011;66064;50.226;14.344;2023-07-09T07:52:36;4.28;;;2.42;;
77111;SDS011;66064;50.226;14.344;2023-07-09T07:55:06;3.88;;;2.30;;
77111;SDS011;66064;50.226;14.344;2023-07-09T07:57:33;3.40;;;2.50;;
77111;SDS011;66064;50.226;14.344;2023-07-09T07:59:59;4.95;;;2.60;;
77111;SDS011;66064;50.226;14.344;2023-07-09T08:02:25;5.22;;;2.53;;
77111;SDS011;66064;50.226;14.344;2023-07-09T08:04:52;3.97;;;2.50;;
77111;SDS011;66064;50.226;14.344;2023-07-09T08:07:18;4.00;;;2.45;;
77111;SDS011;66064;50.226;14.344;2023-07-09T08:12:11;3.80;;;2.22;;
77111;SDS011;66064;50.226;14.344;2023-07-09T08:17:05;3.35;;;2.33;;
77111;SDS011;66064;50.226;14.344;2023-07-09T08:19:31;4.30;;;2.25;;
77111;SDS011;66064;50.226;14.344;2023-07-09T08:21:58;3.55;;;2.30;;
77111;SDS011;66064;50.226;14.344;2023-07-09T08:24:24;3.53;;;1.92;;
77111;SDS011;66064;50.226;14.344;2023-07-09T08:26:50;3.38;;;2.13;;
77111;SDS011;66064;50.226;14.344;2023-07-09T08:29:16;3.22;;;2.13;;
77111;SDS011;66064;50.226;14.344;2023-07-09T08:31:42;4.50;;;2.10;;
77111;SDS011;66064;50.226;14.344;2023-07-09T08:34:08;3.70;;;2.50;;
77111;SDS011;66064;50.226;14.344;2023-07-09T08:36:34;5.63;;;2.20;;
77111;SDS011;66064;50.226;14.344;2023-07-09T08:39:01;3.30;;;2.08;;
77111;SDS011;66064;50.226;14.344;2023-07-09T08:49:40;3.85;;;2.10;;
77111;SDS011;66064;50.226;14.344;2023-07-09T08:52:14;3.58;;;2.00;;
77111;SDS011;66064;50.226;14.344;2023-07-09T08:54:51;2.80;;;2.00;;
77111;SDS011;66064;50.226;14.344;2023-07-09T08:57:22;3.28;;;2.08;;
77111;SDS011;66064;50.226;14.344;2023-07-09T08:59:56;3.53;;;2.17;;
77111;SDS011;66064;50.226;14.344;2023-07-09T09:02:45;4.35;;;2.30;;
77111;SDS011;66064;50.226;14.344;2023-07-09T09:05:17;3.50;;;2.20;;
77111;SDS011;66064;50.226;14.344;2023-07-09T09:07:47;3.33;;;1.85;;
77111;SDS011;66064;50.226;14.344;2023-07-09T09:10:30;3.70;;;1.98;;
77111;SDS011;66064;50.226;14.344;2023-07-09T09:15:45;3.72;;;2.30;;
77111;SDS011;66064;50.226;14.344;2023-07-09T09:20:58;3.17;;;2.10;;
77111;SDS011;66064;50.226;14.344;2023-07-09T09:23:29;3.03;;;1.90;;
77111;SDS011;66064;50.226;14.344;2023-07-09T09:26:33;3.45;;;2.03;;
77111;SDS011;66064;50.226;14.344;2023-07-09T09:29:07;4.50;;;2.95;;
77111;SDS011;66064;50.226;14.344;2023-07-09T09:31:45;6.82;;;2.28;;
77111;SDS011;66064;50.226;14.344;2023-07-09T09:34:18;4.10;;;2.08;;
77111;SDS011;66064;50.226;14.344;2023-07-09T09:36:47;3.30;;;2.17;;
77111;SDS011;66064;50.226;14.344;2023-07-09T09:39:13;3.00;;;2.00;;
77111;SDS011;66064;50.226;14.344;2023-07-09T09:41:39;4.65;;;2.00;;
77111;SDS011;66064;50.226;14.344;2023-07-09T09:44:05;3.17;;;1.95;;
77111;SDS011;66064;50.226;14.344;2023-07-09T09:46:43;3.40;;;1.95;;
77111;SDS011;66064;50.226;14.344;2023-07-09T09:49:09;3.05;;;1.83;;
77111;SDS011;66064;50.226;14.344;2023-07-09T09:51:36;3.45;;;2.05;;
77111;SDS011;66064;50.226;14.344;2023-07-09T09:54:08;3.80;;;2.20;;
77111;SDS011;66064;50.226;14.344;2023-07-09T09:56:42;3.53;;;2.00;;
77111;SDS011;66064;50.226;14.344;2023-07-09T09:59:23;3.08;;;1.85;;
77111;SDS011;66064;50.226;14.344;2023-07-09T10:01:56;4.13;;;1.80;;
77111;SDS011;66064;50.226;14.344;2023-07-09T10:04:24;2.67;;;1.80;;
77111;SDS011;66064;50.226;14.344;2023-07-09T10:06:55;3.17;;;1.90;;
77111;SDS011;66064;50.226;14.344;2023-07-09T10:09:34;3.47;;;2.10;;
77111;SDS011;66064;50.226;14.344;2023-07-09T10:12:13;3.08;;;1.75;;
77111;SDS011;66064;50.226;14.344;2023-07-09T10:14:51;3.35;;;2.03;;
77111;SDS011;66064;50.226;14.344;2023-07-09T10:17:39;3.33;;;2.03;;
77111;SDS011;66064;50.226;14.344;2023-07-09T10:20:23;3.60;;;1.77;;
77111;SDS011;66064;50.226;14.344;2023-07-09T10:29:28;3.22;;;1.80;;
77111;SDS011;66064;50.226;14.344;2023-07-09T10:31:54;3.45;;;1.88;;
77111;SDS011;66064;50.226;14.344;2023-07-09T10:34:29;3.55;;;1.90;;
77111;SDS011;66064;50.226;14.344;2023-07-09T10:37:08;2.97;;;1.83;;
77111;SDS011;66064;50.226;14.344;2023-07-09T10:39:49;3.30;;;2.15;;
77111;SDS011;66064;50.226;14.344;2023-07-09T10:42:21;3.35;;;2.00;;
77111;SDS011;66064;50.226;14.344;2023-07-09T10:44:51;3.35;;;1.90;;
77111;SDS011;66064;50.226;14.344;2023-07-09T10:50:01;2.97;;;1.83;;
77111;SDS011;66064;50.226;14.344;2023-07-09T10:52:31;2.53;;;1.60;;
77111;SDS011;66064;50.226;14.344;2023-07-09T10:58:04;3.65;;;2.05;;
77111;SDS011;66064;50.226;14.344;2023-07-09T11:00:40;2.92;;;1.67;;
77111;SDS011;66064;50.226;14.344;2023-07-09T11:03:50;2.88;;;1.90;;
77111;SDS011;66064;50.226;14.344;2023-07-09T11:06:01;3.83;;;1.80;;
77111;SDS011;66064;50.226;14.344;2023-07-09T11:11:06;3.78;;;2.13;;
77111;SDS011;66064;50.226;14.344;2023-07-09T11:13:53;3.28;;;2.03;;
77111;SDS011;66064;50.226;14.344;2023-07-09T11:16:31;3.22;;;2.10;;
77111;SDS011;66064;50.226;14.344;2023-07-09T11:19:01;3.00;;;2.20;;
77111;SDS011;66064;50.226;14.344;2023-07-09T11:21:29;4.63;;;2.30;;
77111;SDS011;66064;50.226;14.344;2023-07-09T11:23:56;3.80;;;2.20;;
77111;SDS011;66064;50.226;14.344;2023-07-09T11:26:28;4.65;;;2.08;;
77111;SDS011;66064;50.226;14.344;2023-07-09T11:31:34;3.13;;;2.10;;
77111;SDS011;66064;50.226;14.344;2023-07-09T11:45:02;3.10;;;2.05;;
77111;SDS011;66064;50.226;14.344;2023-07-09T11:50:16;5.63;;;2.25;;
77111;SDS011;66064;50.226;14.344;2023-07-09T11:52:51;3.53;;;2.40;;
77111;SDS011;66064;50.226;14.344;2023-07-09T11:55:22;4.00;;;2.50;;
77111;SDS011;66064;50.226;14.344;2023-07-09T11:57:56;3.28;;;2.20;;
77111;SDS011;66064;50.226;14.344;2023-07-09T12:00:25;8.35;;;2.72;;
77111;SDS011;66064;50.226;14.344;2023-07-09T12:02:55;3.42;;;2.40;;
77111;SDS011;66064;50.226;14.344;2023-07-09T12:05:25;3.58;;;2.38;;
77111;SDS011;66064;50.226;14.344;2023-07-09T12:07:54;4.25;;;2.42;;
77111;SDS011;66064;50.226;14.344;2023-07-09T12:10:23;3.60;;;2.35;;
77111;SDS011;66064;50.226;14.344;2023-07-09T12:12:57;3.47;;;2.50;;
77111;SDS011;66064;50.226;14.344;2023-07-09T12:17:56;3.67;;;2.40;;
77111;SDS011;66064;50.226;14.344;2023-07-09T12:20:24;3.28;;;1.90;;
77111;SDS011;66064;50.226;14.344;2023-07-09T12:22:52;4.75;;;2.45;;
77111;SDS011;66064;50.226;14.344;2023-07-09T12:25:19;2.88;;;1.95;;
77111;SDS011;66064;50.226;14.344;2023-07-09T12:27:48;3.15;;;2.05;;
77111;SDS011;66064;50.226;14.344;2023-07-09T12:30:14;3.78;;;2.10;;
77111;SDS011;66064;50.226;14.344;2023-07-09T12:32:44;4.65;;;2.50;;
77111;SDS011;66064;50.226;14.344;2023-07-09T12:35:12;5.35;;;2.50;;
77111;SDS011;66064;50.226;14.344;2023-07-09T12:37:41;3.53;;;2.15;;
77111;SDS011;66064;50.226;14.344;2023-07-09T12:40:22;5.25;;;2.83;;
77111;SDS011;66064;50.226;14.344;2023-07-09T12:42:53;4.75;;;2.80;;
77111;SDS011;66064;50.226;14.344;2023-07-09T12:45:22;4.88;;;2.40;;
77111;SDS011;66064;50.226;14.344;2023-07-09T12:47:49;4.28;;;2.75;;
77111;SDS011;66064;50.226;14.344;2023-07-09T12:50:18;4.03;;;2.42;;
77111;SDS011;66064;50.226;14.344;2023-07-09T12:52:44;3.55;;;2.22;;
77111;SDS011;66064;50.226;14.344;2023-07-09T12:55:23;3.63;;;2.30;;
77111;SDS011;66064;50.226;14.344;2023-07-09T12:57:54;3.22;;;1.70;;
77111;SDS011;66064;50.226;14.344;2023-07-09T13:00:22;3.83;;;1.92;;
77111;SDS011;66064;50.226;14.344;2023-07-09T13:02:54;3.83;;;2.22;;
77111;SDS011;66064;50.226;14.344;2023-07-09T13:05:23;3.22;;;2.10;;
77111;SDS011;66064;50.226;14.344;2023-07-09T13:07:51;4.28;;;1.90;;
77111;SDS011;66064;50.226;14.344;2023-07-09T13:10:28;3.20;;;2.15;;
77111;SDS011;66064;50.226;14.344;2023-07-09T13:13:01;5.32;;;2.30;;
77111;SDS011;66064;50.226;14.344;2023-07-09T13:15:30;3.45;;;1.90;;
77111;SDS011;66064;50.226;14.344;2023-07-09T13:18:04;4.28;;;2.42;;
77111;SDS011;66064;50.226;14.344;2023-07-09T13:20:32;4.53;;;2.40;;
77111;SDS011;66064;50.226;14.344;2023-07-09T13:23:04;3.17;;;1.95;;
77111;SDS011;66064;50.226;14.344;2023-07-09T13:25:42;3.65;;;2.00;;
77111;SDS011;66064;50.226;14.344;2023-07-09T13:28:26;5.00;;;2.53;;
77111;SDS011;66064;50.226;14.344;2023-07-09T13:31:08;4.20;;;2.35;;
77111;SDS011;66064;50.226;14.344;2023-07-09T13:33:41;4.03;;;2.55;;
77111;SDS011;66064;50.226;14.344;2023-07-09T13:36:10;5.18;;;2.70;;
77111;SDS011;66064;50.226;14.344;2023-07-09T13:38:37;2.90;;;2.13;;
77111;SDS011;66064;50.226;14.344;2023-07-09T13:41:12;6.65;;;2.35;;
77111;SDS011;66064;50.226;14.344;2023-07-09T13:43:44;3.83;;;2.15;;
77111;SDS011;66064;50.226;14.344;2023-07-09T13:46:17;3.00;;;2.03;;
77111;SDS011;66064;50.226;14.344;2023-07-09T13:48:55;4.18;;;3.00;;
77111;SDS011;66064;50.226;14.344;2023-07-09T13:51:23;3.63;;;2.30;;
77111;SDS011;66064;50.226;14.344;2023-07-09T13:53:53;4.13;;;2.55;;
77111;SDS011;66064;50.226;14.344;2023-07-09T13:56:21;4.00;;;2.60;;
77111;SDS011;66064;50.226;14.344;2023-07-09T13:58:52;3.65;;;2.50;;
77111;SDS011;66064;50.226;14.344;2023-07-09T14:01:44;4.53;;;2.58;;
77111;SDS011;66064;50.226;14.344;2023-07-09T14:04:13;6.85;;;2.60;;
77111;SDS011;66064;50.226;14.344;2023-07-09T14:06:45;4.43;;;2.53;;
77111;SDS011;66064;50.226;14.344;2023-07-09T14:09:16;3.45;;;2.28;;
77111;SDS011;66064;50.226;14.344;2023-07-09T14:11:54;2.97;;;2.20;;
77111;SDS011;66064;50.226;14.344;2023-07-09T14:14:28;4.40;;;2.40;;
77111;SDS011;66064;50.226;14.344;2023-07-09T14:17:03;3.70;;;2.17;;
77111;SDS011;66064;50.226;14.344;2023-07-09T14:19:30;3.28;;;2.58;;
77111;SDS011;66064;50.226;14.344;2023-07-09T14:21:56;3.13;;;2.20;;
77111;SDS011;66064;50.226;14.344;2023-07-09T14:24:23;3.33;;;2.40;;
77111;SDS011;66064;50.226;14.344;2023-07-09T14:26:52;4.03;;;2.30;;
77111;SDS011;66064;50.226;14.344;2023-07-09T14:29:19;3.47;;;2.33;;
77111;SDS011;66064;50.226;14.344;2023-07-09T14:31:45;3.17;;;2.30;;
77111;SDS011;66064;50.226;14.344;2023-07-09T14:36:49;3.58;;;2.47;;
77111;SDS011;66064;50.226;14.344;2023-07-09T14:39:17;6.93;;;3.15;;
77111;SDS011;66064;50.226;14.344;2023-07-09T14:41:43;4.70;;;2.60;;
77111;SDS011;66064;50.226;14.344;2023-07-09T14:44:29;5.18;;;2.78;;
77111;SDS011;66064;50.226;14.344;2023-07-09T14:46:57;3.50;;;2.63;;
77111;SDS011;66064;50.226;14.344;2023-07-09T14:49:25;3.95;;;2.60;;
77111;SDS011;66064;50.226;14.344;2023-07-09T14:51:52;3.03;;;2.13;;
77111;SDS011;66064;50.226;14.344;2023-07-09T14:56:52;4.53;;;2.47;;
77111;SDS011;66064;50.226;14.344;2023-07-09T14:59:19;3.45;;;2.45;;
77111;SDS011;66064;50.226;14.344;2023-07-09T15:01:46;4.07;;;2.88;;
77111;SDS011;66064;50.226;14.344;2023-07-09T15:06:50;4.05;;;2.55;;
77111;SDS011;66064;50.226;14.344;2023-07-09T15:09:19;6.20;;;2.80;;
77111;SDS011;66064;50.226;14.344;2023-07-09T15:11:51;3.78;;;2.10;;
77111;SDS011;66064;50.226;14.344;2023-07-09T15:14:30;3.30;;;2.55;;
77111;SDS011;66064;50.226;14.344;2023-07-09T15:17:00;3.65;;;2.13;;
77111;SDS011;66064;50.226;14.344;2023-07-09T15:19:31;3.53;;;2.58;;
77111;SDS011;66064;50.226;14.344;2023-07-09T15:22:02;3.95;;;2.30;;
77111;SDS011;66064;50.226;14.344;2023-07-09T15:24:34;3.92;;;2.55;;
77111;SDS011;66064;50.226;14.344;2023-07-09T15:27:04;5.40;;;2.88;;
77111;SDS011;66064;50.226;14.344;2023-07-09T15:29:36;4.80;;;2.80;;
77111;SDS011;66064;50.226;14.344;2023-07-09T15:32:07;4.72;;;2.88;;
77111;SDS011;66064;50.226;14.344;2023-07-09T15:34:40;4.13;;;2.78;;
77111;SDS011;66064;50.226;14.344;2023-07-09T15:37:11;4.93;;;3.35;;
77111;SDS011;66064;50.226;14.344;2023-07-09T15:39:44;4.93;;;2.40;;
77111;SDS011;66064;50.226;14.344;2023-07-09T15:42:11;4.45;;;2.85;;
77111;SDS011;66064;50.226;14.344;2023-07-09T15:44:40;3.85;;;2.55;;
77111;SDS011;66064;50.226;14.344;2023-07-09T15:47:21;4.07;;;2.80;;
77111;SDS011;66064;50.226;14.344;2023-07-09T15:49:57;3.78;;;2.70;;
77111;SDS011;66064;50.226;14.344;2023-07-09T15:52:28;4.22;;;2.88;;
77111;SDS011;66064;50.226;14.344;2023-07-09T15:54:58;5.60;;;3.28;;
77111;SDS011;66064;50.226;14.344;2023-07-09T15:57:24;4.85;;;2.65;;
77111;SDS011;66064;50.226;14.344;2023-07-09T15:59:50;5.07;;;2.80;;
77111;SDS011;66064;50.226;14.344;2023-07-09T16:02:16;4.40;;;3.15;;
77111;SDS011;66064;50.226;14.344;2023-07-09T16:04:43;4.35;;;2.60;;